createdAt,value
2022-09-15T00:00:08.577Z,62.16
2022-09-15T00:02:35.110Z,62.25
2022-09-15T00:05:01.863Z,62.11
2022-09-15T00:07:28.362Z,62.27
2022-09-15T00:09:54.754Z,62.11
2022-09-15T00:12:21.143Z,62.27
2022-09-15T00:14:47.565Z,62.58
2022-09-15T00:17:14.138Z,62.47
2022-09-15T00:19:40.610Z,62.59
2022-09-15T00:22:07.153Z,62.69
2022-09-15T00:24:33.523Z,63.05
2022-09-15T00:26:59.906Z,62.43
2022-09-15T00:29:26.271Z,62.51
2022-09-15T00:31:52.717Z,62.87
2022-09-15T00:34:19.159Z,63.46
2022-09-15T00:36:45.569Z,63.29
2022-09-15T00:39:12.316Z,62.36
2022-09-15T00:41:40.734Z,62.48
2022-09-15T00:44:16.151Z,62.81
2022-09-15T00:46:54.826Z,62.45
2022-09-15T00:49:36.642Z,62.45
2022-09-15T00:52:07.384Z,63.26
2022-09-15T00:54:58.656Z,63.37
2022-09-15T00:57:40.827Z,63.39
2022-09-15T01:00:11.623Z,62.79
2022-09-15T01:02:40.051Z,62.77
2022-09-15T01:05:10.672Z,62.63
2022-09-15T01:07:47.914Z,62.75
2022-09-15T01:10:22.383Z,62.88
2022-09-15T01:12:49.172Z,63.23
2022-09-15T01:15:16.271Z,63.12
2022-09-15T01:17:52.522Z,63.16
2022-09-15T01:20:56.033Z,62.75
2022-09-15T01:23:56.455Z,63.02
2022-09-15T01:26:50.285Z,62.85
2022-09-15T01:29:42.491Z,62.95
2022-09-15T01:32:35.709Z,62.99
2022-09-15T01:35:14.850Z,63.21
2022-09-15T01:38:11.881Z,63.19
2022-09-15T01:40:58.886Z,62.86
2022-09-15T01:43:27.845Z,63.04
2022-09-15T01:45:54.355Z,63.79
2022-09-15T01:48:25.362Z,63.92
2022-09-15T01:50:55.993Z,63.07
2022-09-15T01:53:23.594Z,63.21
2022-09-15T01:56:01.844Z,64.36
2022-09-15T01:58:28.250Z,63.54
2022-09-15T02:01:13.830Z,63.43
2022-09-15T02:03:55.349Z,63.19
2022-09-15T02:06:33.727Z,63.32
2022-09-15T02:09:12.593Z,63.61
2022-09-15T02:11:49.116Z,63.30
2022-09-15T02:14:33.736Z,63.01
2022-09-15T02:17:01.581Z,63.03
2022-09-15T02:19:34.539Z,63.07
2022-09-15T02:22:12.704Z,63.42
2022-09-15T02:24:44.890Z,62.93
2022-09-15T02:27:24.607Z,63.11
2022-09-15T02:29:53.806Z,64.61
2022-09-15T02:32:24.052Z,63.39
2022-09-15T02:34:52.046Z,64.21
2022-09-15T02:37:22.887Z,63.72
2022-09-15T02:39:58.005Z,63.34
2022-09-15T02:42:30.524Z,63.81
2022-09-15T02:44:57.844Z,63.94
2022-09-15T02:47:24.418Z,63.72
2022-09-15T02:49:51.109Z,63.48
2022-09-15T02:52:17.800Z,63.88
2022-09-15T02:54:44.157Z,63.90
2022-09-15T02:57:10.601Z,63.96
2022-09-15T02:59:55.601Z,64.35
2022-09-15T03:02:23.471Z,64.04
2022-09-15T03:04:50.545Z,64.15
2022-09-15T03:07:18.564Z,65.16
2022-09-15T03:09:45.507Z,66.00
2022-09-15T03:12:12.129Z,64.22
2022-09-15T03:14:38.797Z,64.77
2022-09-15T03:17:05.621Z,65.15
2022-09-15T03:19:32.026Z,64.96
2022-09-15T03:21:58.426Z,65.93
2022-09-15T03:24:24.891Z,65.42
2022-09-15T03:26:51.314Z,65.15
2022-09-15T03:29:17.729Z,64.63
2022-09-15T03:31:44.174Z,64.91
2022-09-15T03:34:10.750Z,65.01
2022-09-15T03:36:38.202Z,64.53
2022-09-15T03:39:04.669Z,64.22
2022-09-15T03:41:31.049Z,64.41
2022-09-15T03:43:57.651Z,64.98
2022-09-15T03:46:24.161Z,64.45
2022-09-15T03:48:50.542Z,64.14
2022-09-15T03:51:16.953Z,64.21
2022-09-15T03:53:43.692Z,64.35
2022-09-15T03:56:10.167Z,64.79
2022-09-15T03:58:36.618Z,64.69
2022-09-15T04:01:03.616Z,64.41
2022-09-15T04:03:31.599Z,64.24
2022-09-15T04:05:58.018Z,64.04
2022-09-15T04:08:24.416Z,64.37
2022-09-15T04:10:50.865Z,64.56
2022-09-15T04:13:17.263Z,64.39
2022-09-15T04:15:44.458Z,64.59
2022-09-15T04:18:10.840Z,64.43
2022-09-15T04:20:39.707Z,64.95
2022-09-15T04:23:06.114Z,65.93
2022-09-15T04:25:32.540Z,64.94
2022-09-15T04:27:58.962Z,64.69
2022-09-15T04:30:25.438Z,64.89
2022-09-15T04:32:52.383Z,65.06
2022-09-15T04:35:18.829Z,64.34
2022-09-15T04:37:45.254Z,64.71
2022-09-15T04:40:11.774Z,65.18
2022-09-15T04:42:38.341Z,66.54
2022-09-15T04:45:05.621Z,65.13
2022-09-15T04:47:32.017Z,65.78
2022-09-15T04:49:58.537Z,65.39
2022-09-15T04:52:24.938Z,65.36
2022-09-15T04:54:51.350Z,65.53
2022-09-15T04:57:17.782Z,65.32
2022-09-15T04:59:44.158Z,65.72
2022-09-15T05:02:10.617Z,66.34
2022-09-15T05:04:37.052Z,65.18
2022-09-15T05:07:03.516Z,65.30
2022-09-15T05:09:30.928Z,65.64
2022-09-15T05:11:57.699Z,66.16
2022-09-15T05:14:24.146Z,65.64
2022-09-15T05:16:50.568Z,65.02
2022-09-15T05:19:17.015Z,66.78
2022-09-15T05:21:43.365Z,66.03
2022-09-15T05:24:09.846Z,64.82
2022-09-15T05:26:36.212Z,66.71
2022-09-15T05:29:02.678Z,66.92
2022-09-15T05:31:31.403Z,65.76
2022-09-15T05:34:00.733Z,66.15
2022-09-15T05:36:27.114Z,64.87
2022-09-15T05:38:56.451Z,65.30
2022-09-15T05:41:23.848Z,65.70
2022-09-15T05:43:50.940Z,65.81
2022-09-15T05:46:18.841Z,64.87
2022-09-15T05:48:45.780Z,64.27
2022-09-15T05:51:13.348Z,64.26
2022-09-15T05:53:40.072Z,65.64
2022-09-15T05:56:12.442Z,65.98
2022-09-15T05:58:43.663Z,64.75
2022-09-15T06:01:18.009Z,64.96
2022-09-15T06:03:44.925Z,64.80
2022-09-15T06:06:12.189Z,63.91
2022-09-15T06:08:44.265Z,65.42
2022-09-15T06:11:16.721Z,66.20
2022-09-15T06:13:44.050Z,67.76
2022-09-15T06:16:13.770Z,66.43
2022-09-15T06:18:41.469Z,66.58
2022-09-15T06:21:16.393Z,65.60
2022-09-15T06:23:46.030Z,64.01
2022-09-15T06:26:19.043Z,64.13
2022-09-15T06:28:50.778Z,64.02
2022-09-15T06:31:18.244Z,64.48
2022-09-15T06:33:48.078Z,65.13
2022-09-15T06:36:15.806Z,66.85
2022-09-15T06:38:43.425Z,66.78
2022-09-15T06:41:10.895Z,67.38
2022-09-15T06:43:38.256Z,65.55
2022-09-15T06:46:19.673Z,64.66
2022-09-15T06:48:48.456Z,65.52
2022-09-15T06:51:17.045Z,65.49
2022-09-15T06:53:44.023Z,67.04
2022-09-15T06:56:15.754Z,65.07
2022-09-15T06:58:43.293Z,65.97
2022-09-15T07:01:12.630Z,65.50
2022-09-15T07:03:41.493Z,64.60
2022-09-15T07:06:08.900Z,65.02
2022-09-15T07:08:35.431Z,64.75
2022-09-15T07:11:02.034Z,64.13
2022-09-15T07:13:28.443Z,63.33
2022-09-15T07:16:00.141Z,63.82
2022-09-15T07:18:27.483Z,63.00
2022-09-15T07:20:59.227Z,65.27
2022-09-15T07:23:26.136Z,64.35
2022-09-15T07:25:52.509Z,65.55
2022-09-15T07:28:19.131Z,66.05
2022-09-15T07:30:50.346Z,64.16
2022-09-15T07:33:16.734Z,65.90
2022-09-15T07:35:44.326Z,66.80
2022-09-15T07:38:10.956Z,64.04
2022-09-15T07:40:38.470Z,65.27
2022-09-15T07:43:05.946Z,65.90
2022-09-15T07:45:33.321Z,67.20
2022-09-15T07:47:59.776Z,66.04
2022-09-15T07:50:26.175Z,65.48
2022-09-15T07:52:56.046Z,64.31
2022-09-15T07:55:23.148Z,62.76
2022-09-15T07:58:03.190Z,64.29
2022-09-15T08:00:29.861Z,65.82
2022-09-15T08:02:56.396Z,63.44
2022-09-15T08:05:27.969Z,63.94
2022-09-15T08:07:57.537Z,63.52
2022-09-15T08:10:25.232Z,62.39
2022-09-15T08:12:52.370Z,63.78
2022-09-15T08:15:19.003Z,62.97
2022-09-15T08:17:46.494Z,61.79
2022-09-15T08:20:13.922Z,63.39
2022-09-15T08:22:41.148Z,61.25
2022-09-15T08:25:08.034Z,61.18
2022-09-15T08:27:34.420Z,63.37
2022-09-15T08:30:00.935Z,62.36
2022-09-15T08:32:27.307Z,62.98
2022-09-15T08:34:53.799Z,65.39
2022-09-15T08:37:20.382Z,63.73
2022-09-15T08:39:48.034Z,63.93
2022-09-15T08:42:24.010Z,63.56
2022-09-15T08:44:57.508Z,62.91
2022-09-15T08:47:41.916Z,63.46
2022-09-15T08:50:31.008Z,61.86
2022-09-15T08:53:06.765Z,62.14
2022-09-15T08:55:43.699Z,60.86
2022-09-15T08:58:28.556Z,59.05
2022-09-15T09:01:02.874Z,61.10
2022-09-15T09:03:35.461Z,59.66
2022-09-15T09:06:20.224Z,60.37
2022-09-15T09:09:14.487Z,60.25
2022-09-15T09:12:06.120Z,60.60
2022-09-15T09:14:47.004Z,59.56
2022-09-15T09:17:22.197Z,57.55
2022-09-15T09:20:03.625Z,57.08
2022-09-15T09:22:35.757Z,56.16
2022-09-15T09:25:11.878Z,57.41
2022-09-15T09:27:50.816Z,57.08
2022-09-15T09:30:19.771Z,56.26
2022-09-15T09:33:10.636Z,55.22
2022-09-15T09:35:44.931Z,56.81
2022-09-15T09:38:15.741Z,55.51
2022-09-15T09:40:43.023Z,55.52
2022-09-15T09:43:10.403Z,53.68
2022-09-15T09:45:37.050Z,56.64
2022-09-15T09:48:15.160Z,55.40
2022-09-15T09:50:45.921Z,55.41
2022-09-15T09:53:25.206Z,53.49
2022-09-15T09:55:54.948Z,54.49
2022-09-15T09:58:24.317Z,52.89
2022-09-15T10:00:52.671Z,53.36
2022-09-15T10:03:29.430Z,53.77
2022-09-15T10:06:11.684Z,53.97
2022-09-15T10:08:55.903Z,53.36
2022-09-15T10:11:38.173Z,51.04
2022-09-15T10:14:04.678Z,50.07
2022-09-15T10:16:32.647Z,49.76
2022-09-15T10:18:59.317Z,50.37
2022-09-15T10:21:26.060Z,50.02
2022-09-15T10:23:52.584Z,48.56
2022-09-15T10:26:20.859Z,50.05
2022-09-15T10:31:37.726Z,49.66
2022-09-15T10:34:27.655Z,52.11
2022-09-15T10:37:00.418Z,50.21
2022-09-15T10:39:45.877Z,50.23
2022-09-15T10:42:29.816Z,47.59
2022-09-15T10:45:05.250Z,48.11
2022-09-15T10:47:57.344Z,48.03
2022-09-15T10:50:26.849Z,48.09
2022-09-15T10:53:13.414Z,48.34
2022-09-15T10:55:53.292Z,47.65
2022-09-15T10:58:32.206Z,45.09
2022-09-15T11:01:21.937Z,44.42
2022-09-15T11:04:21.159Z,43.02
2022-09-15T11:07:05.456Z,44.22
2022-09-15T11:09:45.610Z,42.69
2022-09-15T11:12:43.454Z,43.46
2022-09-15T11:15:51.121Z,44.97
2022-09-15T11:18:23.292Z,44.55
2022-09-15T11:21:03.892Z,45.44
2022-09-15T11:23:43.032Z,43.94
2022-09-15T11:26:24.362Z,43.60
2022-09-15T11:29:05.392Z,44.76
2022-09-15T11:31:39.602Z,43.71
2022-09-15T11:34:17.770Z,43.62
2022-09-15T11:36:54.769Z,43.32
2022-09-15T11:39:29.347Z,42.82
2022-09-15T11:42:25.049Z,43.84
2022-09-15T11:44:51.718Z,44.49
2022-09-15T11:47:26.906Z,44.49
2022-09-15T11:49:58.484Z,44.68
2022-09-15T11:52:48.917Z,45.84
2022-09-15T11:55:28.277Z,45.43
2022-09-15T11:58:01.820Z,46.50
2022-09-15T12:00:28.424Z,46.37
2022-09-15T12:03:23.269Z,48.00
2022-09-15T12:05:56.227Z,48.05
2022-09-15T12:08:33.740Z,47.29
2022-09-15T12:11:02.418Z,46.58
2022-09-15T12:13:30.345Z,46.22
2022-09-15T12:15:57.553Z,46.41
2022-09-15T12:18:39.837Z,45.92
2022-09-15T12:21:26.919Z,46.94
2022-09-15T12:24:30.944Z,47.45
2022-09-15T12:27:00.895Z,44.66
2022-09-15T12:29:27.214Z,43.34
2022-09-15T12:32:18.521Z,46.11
2022-09-15T12:35:16.325Z,44.62
2022-09-15T12:37:46.648Z,43.02
2022-09-15T12:40:29.842Z,44.12
2022-09-15T12:43:02.482Z,44.33
2022-09-15T12:45:36.163Z,45.57
2022-09-15T12:48:18.945Z,44.53
2022-09-15T12:51:01.577Z,43.41
2022-09-15T12:56:06.911Z,44.02
2022-09-15T12:58:45.542Z,46.16
2022-09-15T13:01:44.240Z,44.90
2022-09-15T13:04:26.882Z,44.13
2022-09-15T13:07:15.228Z,45.37
2022-09-15T13:09:55.999Z,45.17
2022-09-15T13:12:29.799Z,44.77
2022-09-15T13:14:56.959Z,44.08
2022-09-15T13:17:25.638Z,43.55
2022-09-15T13:19:59.746Z,44.96
2022-09-15T13:22:41.289Z,44.46
2022-09-15T13:25:10.779Z,44.38
2022-09-15T13:27:40.939Z,46.36
2022-09-15T13:30:10.315Z,45.25
2022-09-15T13:32:46.771Z,44.69
2022-09-15T13:35:33.761Z,44.57
2022-09-15T13:38:31.912Z,45.86
2022-09-15T13:41:18.049Z,45.61
2022-09-15T13:44:16.700Z,46.09
2022-09-15T13:47:01.129Z,44.61
2022-09-15T13:49:54.926Z,46.09
2022-09-15T13:52:41.897Z,44.68
2022-09-15T13:55:14.414Z,45.41
2022-09-15T14:00:43.757Z,43.32
2022-09-15T14:03:16.252Z,43.20
2022-09-15T14:05:43.342Z,44.08
2022-09-15T14:08:17.332Z,43.85
2022-09-15T14:11:13.005Z,44.21
2022-09-15T14:13:44.894Z,44.08
2022-09-15T14:16:33.913Z,43.77
2022-09-15T14:19:02.550Z,44.37
2022-09-15T14:21:32.402Z,43.10
2022-09-15T14:24:04.332Z,43.22
2022-09-15T14:26:33.394Z,44.11
2022-09-15T14:29:02.039Z,44.25
2022-09-15T14:31:31.510Z,43.30
2022-09-15T14:33:58.321Z,42.54
2022-09-15T14:36:33.825Z,42.90
2022-09-15T14:39:12.114Z,43.51
2022-09-15T14:41:40.018Z,42.48
2022-09-15T14:47:26.739Z,43.13
2022-09-15T14:50:19.767Z,43.01
2022-09-15T14:53:14.065Z,42.32
2022-09-15T14:55:52.891Z,42.27
2022-09-15T14:58:29.877Z,41.32
2022-09-15T15:01:30.291Z,42.66
2022-09-15T15:04:19.902Z,42.18
2022-09-15T15:07:04.190Z,41.82
2022-09-15T15:09:58.994Z,41.31
2022-09-15T15:12:40.519Z,42.15
2022-09-15T15:15:10.773Z,43.00
2022-09-15T15:17:49.702Z,41.80
2022-09-15T15:20:23.094Z,40.55
2022-09-15T15:23:18.975Z,40.57
2022-09-15T15:25:46.998Z,40.81
2022-09-15T15:28:32.726Z,41.48
2022-09-15T15:31:12.201Z,40.90
2022-09-15T15:33:45.995Z,41.57
2022-09-15T15:36:12.465Z,42.78
2022-09-15T15:38:47.520Z,42.66
2022-09-15T15:41:26.766Z,42.65
2022-09-15T15:44:27.022Z,44.03
2022-09-15T15:47:23.603Z,43.57
2022-09-15T15:50:12.414Z,42.89
2022-09-15T15:52:41.392Z,42.44
2022-09-15T15:55:08.481Z,41.98
2022-09-15T15:57:38.798Z,42.04
2022-09-15T16:00:21.639Z,42.45
2022-09-15T16:02:50.116Z,41.65
2022-09-15T16:05:17.031Z,41.79
2022-09-15T16:07:45.940Z,42.34
2022-09-15T16:10:21.576Z,41.78
2022-09-15T16:12:48.114Z,41.26
2022-09-15T16:15:17.700Z,40.72
2022-09-15T16:17:46.854Z,40.76
2022-09-15T16:20:15.983Z,41.14
2022-09-15T16:22:43.364Z,40.54
2022-09-15T16:25:28.080Z,40.79
2022-09-15T16:27:54.839Z,40.81
2022-09-15T16:30:21.260Z,42.50
2022-09-15T16:32:47.733Z,41.17
2022-09-15T16:35:21.781Z,41.30
2022-09-15T16:37:48.238Z,41.30
2022-09-15T16:40:14.817Z,42.08
2022-09-15T16:42:41.247Z,42.11
2022-09-15T16:45:21.330Z,42.36
2022-09-15T16:47:47.737Z,44.76
2022-09-15T16:50:14.202Z,47.85
2022-09-15T16:52:40.574Z,46.15
2022-09-15T16:55:16.924Z,46.55
2022-09-15T16:57:43.337Z,48.04
2022-09-15T17:00:10.464Z,48.70
2022-09-15T17:02:36.892Z,47.91
2022-09-15T17:05:03.465Z,49.00
2022-09-15T17:07:29.873Z,48.34
2022-09-15T17:09:56.458Z,49.08
2022-09-15T17:12:23.393Z,49.46
2022-09-15T17:14:49.746Z,49.18
2022-09-15T17:17:25.879Z,50.13
2022-09-15T17:19:52.259Z,49.35
2022-09-15T17:22:18.651Z,53.31
2022-09-15T17:24:45.070Z,52.51
2022-09-15T17:27:11.561Z,53.25
2022-09-15T17:29:37.936Z,51.32
2022-09-15T17:32:04.456Z,51.02
2022-09-15T17:34:30.888Z,51.33
2022-09-15T17:36:57.269Z,51.78
2022-09-15T17:39:23.737Z,51.27
2022-09-15T17:41:50.215Z,52.86
2022-09-15T17:44:16.889Z,51.86
2022-09-15T17:46:43.375Z,53.50
2022-09-15T17:49:09.877Z,52.07
2022-09-15T17:51:36.344Z,51.17
2022-09-15T17:54:02.846Z,50.81
2022-09-15T17:56:29.223Z,50.95
2022-09-15T17:58:55.660Z,50.57
2022-09-15T18:01:22.716Z,50.50
2022-09-15T18:03:49.994Z,50.24
2022-09-15T18:06:16.424Z,50.06
2022-09-15T18:08:43.053Z,50.22
2022-09-15T18:11:13.577Z,49.77
2022-09-15T18:13:40.018Z,49.58
2022-09-15T18:16:12.202Z,49.30
2022-09-15T18:18:40.360Z,49.07
2022-09-15T18:21:09.628Z,49.09
2022-09-15T18:23:39.434Z,49.67
2022-09-15T18:26:05.933Z,50.08
2022-09-15T18:28:32.390Z,49.35
2022-09-15T18:30:58.919Z,49.20
2022-09-15T18:33:26.158Z,49.76
2022-09-15T18:35:54.933Z,49.01
2022-09-15T18:38:22.690Z,47.52
2022-09-15T18:40:53.194Z,48.10
2022-09-15T18:43:20.721Z,47.68
2022-09-15T18:45:48.177Z,47.91
2022-09-15T18:48:14.714Z,46.68
2022-09-15T18:50:43.413Z,46.21
2022-09-15T18:53:10.197Z,45.53
2022-09-15T18:55:36.641Z,46.98
2022-09-15T18:58:03.124Z,48.57
2022-09-15T19:00:30.081Z,49.84
2022-09-15T19:02:58.824Z,51.77
2022-09-15T19:05:25.966Z,52.23
2022-09-15T19:07:52.845Z,51.22
2022-09-15T19:10:19.584Z,51.98
2022-09-15T19:12:45.986Z,51.10
2022-09-15T19:15:13.604Z,50.20
2022-09-15T19:17:41.169Z,50.64
2022-09-15T19:20:09.816Z,51.51
2022-09-15T19:22:37.108Z,51.09
2022-09-15T19:25:05.306Z,50.54
2022-09-15T19:27:32.324Z,54.26
2022-09-15T19:29:58.885Z,52.23
2022-09-15T19:32:25.539Z,52.52
2022-09-15T19:34:52.216Z,52.61
2022-09-15T19:37:20.347Z,54.82
2022-09-15T19:39:48.066Z,54.12
2022-09-15T19:44:42.272Z,53.66
2022-09-15T19:47:09.434Z,54.27
2022-09-15T19:49:35.927Z,54.39
2022-09-15T19:52:02.406Z,56.32
2022-09-15T19:54:30.407Z,57.16
2022-09-15T19:56:57.429Z,55.57
2022-09-15T19:59:28.712Z,55.08
2022-09-15T20:01:57.683Z,55.63
2022-09-15T20:04:24.200Z,54.39
2022-09-15T20:06:50.648Z,56.15
2022-09-15T20:09:17.617Z,55.30
2022-09-15T20:11:44.202Z,54.82
2022-09-15T20:14:10.675Z,57.05
2022-09-15T20:16:37.215Z,55.98
2022-09-15T20:19:04.795Z,54.68
2022-09-15T20:21:49.136Z,54.23
2022-09-15T20:24:17.775Z,54.71
2022-09-15T20:26:44.233Z,56.63
2022-09-15T20:29:11.712Z,56.13
2022-09-15T20:31:38.289Z,55.85
2022-09-15T20:34:05.107Z,56.35
2022-09-15T20:36:35.451Z,56.05
2022-09-15T20:39:08.646Z,56.50
2022-09-15T20:41:35.374Z,56.45
2022-09-15T20:44:02.045Z,56.13
2022-09-15T20:46:31.385Z,56.49
2022-09-15T20:48:57.815Z,56.95
2022-09-15T20:51:27.783Z,58.20
2022-09-15T20:53:56.524Z,59.63
2022-09-15T20:56:25.629Z,58.45
2022-09-15T20:58:53.856Z,59.06
2022-09-15T21:01:23.286Z,57.00
2022-09-15T21:03:50.361Z,59.85
2022-09-15T21:06:22.711Z,57.57
2022-09-15T21:08:49.966Z,59.69
2022-09-15T21:11:19.409Z,57.46
2022-09-15T21:13:47.118Z,59.42
2022-09-15T21:16:16.148Z,60.02
2022-09-15T21:18:44.393Z,59.89
2022-09-15T21:21:16.646Z,58.72
2022-09-15T21:23:58.599Z,59.29
2022-09-15T21:26:27.656Z,57.78
2022-09-15T21:28:55.640Z,57.44
2022-09-15T21:31:26.063Z,57.21
2022-09-15T21:33:54.153Z,58.94
2022-09-15T21:36:23.798Z,57.95
2022-09-15T21:38:53.019Z,58.14
2022-09-15T21:41:22.408Z,57.20
2022-09-15T21:43:53.028Z,56.96
2022-09-15T21:46:20.683Z,59.10
2022-09-15T21:48:48.651Z,58.06
2022-09-15T21:51:24.200Z,59.46
2022-09-15T21:53:52.883Z,59.05
2022-09-15T21:56:19.492Z,60.78
2022-09-15T21:58:46.175Z,59.65
2022-09-15T22:01:25.193Z,58.20
2022-09-15T22:04:03.336Z,57.89
2022-09-15T22:06:32.355Z,59.17
2022-09-15T22:09:04.801Z,58.74
2022-09-15T22:11:31.593Z,61.07
2022-09-15T22:13:58.058Z,60.49
2022-09-15T22:16:25.258Z,58.95
2022-09-15T22:18:52.121Z,58.50
2022-09-15T22:21:24.234Z,57.90
2022-09-15T22:23:52.175Z,57.70
2022-09-15T22:26:27.202Z,60.08
2022-09-15T22:28:54.588Z,58.45
2022-09-15T22:31:22.223Z,61.11
2022-09-15T22:33:48.893Z,60.31
2022-09-15T22:36:17.636Z,60.21
2022-09-15T22:38:44.611Z,58.99
2022-09-15T22:41:13.632Z,60.79
2022-09-15T22:43:41.864Z,59.44
2022-09-15T22:46:09.244Z,60.51
2022-09-15T22:48:39.756Z,59.61
2022-09-15T22:51:10.164Z,58.74
2022-09-15T22:53:36.646Z,59.91
2022-09-15T22:56:09.818Z,61.63
2022-09-15T22:58:37.013Z,62.47
2022-09-15T23:01:18.328Z,60.83
2022-09-15T23:03:47.504Z,62.04
2022-09-15T23:06:14.392Z,60.99
2022-09-15T23:08:40.806Z,60.55
2022-09-15T23:11:12.821Z,59.35
2022-09-15T23:13:40.765Z,62.15
2022-09-15T23:16:09.411Z,60.00
2022-09-15T23:18:36.535Z,59.63
2022-09-15T23:21:07.257Z,61.36
2022-09-15T23:23:35.766Z,59.11
2022-09-15T23:26:03.748Z,62.62
2022-09-15T23:28:30.795Z,59.60
2022-09-15T23:30:58.368Z,60.91
2022-09-15T23:33:26.310Z,60.47
2022-09-15T23:35:53.248Z,59.87
2022-09-15T23:38:20.785Z,60.89
2022-09-15T23:40:49.734Z,62.21
2022-09-15T23:43:16.735Z,60.58
2022-09-15T23:45:44.491Z,60.69
2022-09-15T23:48:11.425Z,62.21
2022-09-15T23:50:39.088Z,60.40
2022-09-15T23:53:06.380Z,63.11
2022-09-15T23:55:32.849Z,61.53
2022-09-15T23:57:59.356Z,60.68
